sensor_id;sensor_type;location;lat;lon;timestamp;P1;durP1;ratioP1;P2;durP2;ratioP2
11002;SDS011;5554;55.796;13.090;2022-08-11T00:02:28;14.23;;;13.83;;
11002;SDS011;5554;55.796;13.090;2022-08-11T00:05:00;14.63;;;14.23;;
11002;SDS011;5554;55.796;13.090;2022-08-11T00:07:31;15.10;;;14.70;;
11002;SDS011;5554;55.796;13.090;2022-08-11T00:09:59;13.37;;;12.97;;
11002;SDS011;5554;55.796;13.090;2022-08-11T00:12:27;14.17;;;13.77;;
11002;SDS011;5554;55.796;13.090;2022-08-11T00:14:55;13.40;;;13.00;;
11002;SDS011;5554;55.796;13.090;2022-08-11T00:17:26;13.17;;;12.77;;
11002;SDS011;5554;55.796;13.090;2022-08-11T00:20:08;13.87;;;13.47;;
11002;SDS011;5554;55.796;13.090;2022-08-11T00:25:46;13.40;;;13.00;;
11002;SDS011;5554;55.796;13.090;2022-08-11T00:28:22;14.30;;;13.70;;
11002;SDS011;5554;55.796;13.090;2022-08-11T00:31:23;13.57;;;13.17;;
11002;SDS011;5554;55.796;13.090;2022-08-11T00:33:56;14.37;;;13.97;;
11002;SDS011;5554;55.796;13.090;2022-08-11T00:36:26;13.30;;;12.90;;
11002;SDS011;5554;55.796;13.090;2022-08-11T00:39:03;14.20;;;13.80;;
11002;SDS011;5554;55.796;13.090;2022-08-11T00:41:56;13.80;;;13.40;;
11002;SDS011;5554;55.796;13.090;2022-08-11T00:44:36;14.50;;;14.10;;
11002;SDS011;5554;55.796;13.090;2022-08-11T01:04:19;13.33;;;12.93;;
11002;SDS011;5554;55.796;13.090;2022-08-11T01:07:34;14.07;;;13.67;;
11002;SDS011;5554;55.796;13.090;2022-08-11T01:13:46;14.93;;;14.53;;
11002;SDS011;5554;55.796;13.090;2022-08-11T01:16:52;15.23;;;14.83;;
11002;SDS011;5554;55.796;13.090;2022-08-11T01:19:49;15.97;;;15.47;;
11002;SDS011;5554;55.796;13.090;2022-08-11T01:22:58;14.10;;;13.70;;
11002;SDS011;5554;55.796;13.090;2022-08-11T01:25:43;15.90;;;15.40;;
11002;SDS011;5554;55.796;13.090;2022-08-11T01:32:01;14.90;;;14.50;;
11002;SDS011;5554;55.796;13.090;2022-08-11T01:44:41;14.63;;;14.23;;
11002;SDS011;5554;55.796;13.090;2022-08-11T01:47:25;14.30;;;13.90;;
11002;SDS011;5554;55.796;13.090;2022-08-11T01:50:18;14.50;;;14.10;;
11002;SDS011;5554;55.796;13.090;2022-08-11T01:53:00;15.13;;;14.73;;
11002;SDS011;5554;55.796;13.090;2022-08-11T01:55:37;15.27;;;14.87;;
11002;SDS011;5554;55.796;13.090;2022-08-11T01:58:11;15.13;;;14.73;;
11002;SDS011;5554;55.796;13.090;2022-08-11T02:00:46;15.80;;;15.30;;
11002;SDS011;5554;55.796;13.090;2022-08-11T02:03:22;16.40;;;15.90;;
11002;SDS011;5554;55.796;13.090;2022-08-11T02:05:58;15.43;;;15.03;;
11002;SDS011;5554;55.796;13.090;2022-08-11T02:08:51;15.07;;;14.67;;
11002;SDS011;5554;55.796;13.090;2022-08-11T02:11:29;15.80;;;15.30;;
11002;SDS011;5554;55.796;13.090;2022-08-11T02:14:06;15.03;;;14.63;;
11002;SDS011;5554;55.796;13.090;2022-08-11T02:16:46;14.27;;;13.87;;
11002;SDS011;5554;55.796;13.090;2022-08-11T02:19:22;13.97;;;13.57;;
11002;SDS011;5554;55.796;13.090;2022-08-11T02:22:18;14.13;;;13.73;;
11002;SDS011;5554;55.796;13.090;2022-08-11T02:25:10;14.93;;;14.53;;
11002;SDS011;5554;55.796;13.090;2022-08-11T02:27:49;13.90;;;13.50;;
11002;SDS011;5554;55.796;13.090;2022-08-11T02:30:23;15.90;;;15.40;;
11002;SDS011;5554;55.796;13.090;2022-08-11T02:32:54;14.93;;;14.53;;
11002;SDS011;5554;55.796;13.090;2022-08-11T02:35:56;15.20;;;14.80;;
11002;SDS011;5554;55.796;13.090;2022-08-11T02:38:29;14.30;;;13.90;;
11002;SDS011;5554;55.796;13.090;2022-08-11T02:41:00;15.13;;;14.73;;
11002;SDS011;5554;55.796;13.090;2022-08-11T02:43:58;14.87;;;14.47;;
11002;SDS011;5554;55.796;13.090;2022-08-11T02:46:47;13.70;;;13.30;;
11002;SDS011;5554;55.796;13.090;2022-08-11T02:49:26;15.50;;;15.07;;
11002;SDS011;5554;55.796;13.090;2022-08-11T02:52:23;14.90;;;14.50;;
11002;SDS011;5554;55.796;13.090;2022-08-11T02:55:12;16.23;;;15.73;;
11002;SDS011;5554;55.796;13.090;2022-08-11T02:57:47;15.07;;;14.67;;
11002;SDS011;5554;55.796;13.090;2022-08-11T03:00:19;13.27;;;12.87;;
11002;SDS011;5554;55.796;13.090;2022-08-11T03:02:52;14.67;;;14.27;;
11002;SDS011;5554;55.796;13.090;2022-08-11T03:05:38;14.60;;;14.20;;
11002;SDS011;5554;55.796;13.090;2022-08-11T03:08:16;14.50;;;14.10;;
11002;SDS011;5554;55.796;13.090;2022-08-11T03:11:02;14.50;;;14.10;;
11002;SDS011;5554;55.796;13.090;2022-08-11T03:13:57;13.63;;;13.23;;
11002;SDS011;5554;55.796;13.090;2022-08-11T03:16:50;15.17;;;14.77;;
11002;SDS011;5554;55.796;13.090;2022-08-11T03:19:24;13.53;;;13.13;;
11002;SDS011;5554;55.796;13.090;2022-08-11T03:22:00;14.07;;;13.67;;
11002;SDS011;5554;55.796;13.090;2022-08-11T03:24:36;16.00;;;15.50;;
11002;SDS011;5554;55.796;13.090;2022-08-11T03:27:21;14.83;;;14.43;;
11002;SDS011;5554;55.796;13.090;2022-08-11T03:30:05;14.73;;;14.33;;
11002;SDS011;5554;55.796;13.090;2022-08-11T03:32:38;14.93;;;14.53;;
11002;SDS011;5554;55.796;13.090;2022-08-11T03:35:35;14.53;;;14.13;;
11002;SDS011;5554;55.796;13.090;2022-08-11T03:38:05;14.70;;;14.30;;
11002;SDS011;5554;55.796;13.090;2022-08-11T03:40:42;15.00;;;14.60;;
11002;SDS011;5554;55.796;13.090;2022-08-11T03:43:43;15.53;;;15.13;;
11002;SDS011;5554;55.796;13.090;2022-08-11T03:46:20;15.33;;;14.93;;
11002;SDS011;5554;55.796;13.090;2022-08-11T03:49:02;16.07;;;15.57;;
11002;SDS011;5554;55.796;13.090;2022-08-11T03:51:37;14.73;;;14.33;;
11002;SDS011;5554;55.796;13.090;2022-08-11T03:54:15;15.00;;;14.60;;
11002;SDS011;5554;55.796;13.090;2022-08-11T03:57:04;14.77;;;14.37;;
11002;SDS011;5554;55.796;13.090;2022-08-11T04:00:06;14.23;;;13.83;;
11002;SDS011;5554;55.796;13.090;2022-08-11T04:03:05;14.53;;;14.13;;
11002;SDS011;5554;55.796;13.090;2022-08-11T04:09:01;15.07;;;14.67;;
11002;SDS011;5554;55.796;13.090;2022-08-11T04:24:26;14.13;;;13.73;;
11002;SDS011;5554;55.796;13.090;2022-08-11T04:27:33;13.57;;;13.17;;
11002;SDS011;5554;55.796;13.090;2022-08-11T04:30:29;14.83;;;14.43;;
11002;SDS011;5554;55.796;13.090;2022-08-11T04:36:01;13.27;;;12.87;;
11002;SDS011;5554;55.796;13.090;2022-08-11T04:39:22;14.20;;;13.80;;
11002;SDS011;5554;55.796;13.090;2022-08-11T04:59:14;14.90;;;14.50;;
11002;SDS011;5554;55.796;13.090;2022-08-11T05:05:28;14.10;;;13.70;;
11002;SDS011;5554;55.796;13.090;2022-08-11T05:08:16;14.23;;;13.83;;
11002;SDS011;5554;55.796;13.090;2022-08-11T05:14:30;12.67;;;12.27;;
11002;SDS011;5554;55.796;13.090;2022-08-11T05:17:21;13.83;;;13.43;;
11002;SDS011;5554;55.796;13.090;2022-08-11T05:20:14;14.33;;;13.93;;
11002;SDS011;5554;55.796;13.090;2022-08-11T05:23:04;13.90;;;13.50;;
11002;SDS011;5554;55.796;13.090;2022-08-11T05:26:00;13.87;;;13.47;;
11002;SDS011;5554;55.796;13.090;2022-08-11T05:28:50;12.87;;;12.47;;
11002;SDS011;5554;55.796;13.090;2022-08-11T05:31:42;12.87;;;12.47;;
11002;SDS011;5554;55.796;13.090;2022-08-11T05:34:42;13.23;;;12.83;;
11002;SDS011;5554;55.796;13.090;2022-08-11T05:37:19;13.33;;;12.93;;
11002;SDS011;5554;55.796;13.090;2022-08-11T05:39:52;13.87;;;13.47;;
11002;SDS011;5554;55.796;13.090;2022-08-11T05:42:41;13.90;;;13.50;;
11002;SDS011;5554;55.796;13.090;2022-08-11T05:45:31;13.70;;;13.30;;
11002;SDS011;5554;55.796;13.090;2022-08-11T05:48:19;13.20;;;12.80;;
11002;SDS011;5554;55.796;13.090;2022-08-11T05:51:05;15.30;;;14.77;;
11002;SDS011;5554;55.796;13.090;2022-08-11T05:53:51;12.13;;;11.83;;
11002;SDS011;5554;55.796;13.090;2022-08-11T05:56:41;12.97;;;12.57;;
11002;SDS011;5554;55.796;13.090;2022-08-11T05:59:20;13.30;;;12.90;;
11002;SDS011;5554;55.796;13.090;2022-08-11T06:01:49;12.53;;;12.13;;
11002;SDS011;5554;55.796;13.090;2022-08-11T06:04:19;12.47;;;12.07;;
11002;SDS011;5554;55.796;13.090;2022-08-11T06:06:48;11.53;;;11.23;;
11002;SDS011;5554;55.796;13.090;2022-08-11T06:09:21;13.00;;;12.60;;
11002;SDS011;5554;55.796;13.090;2022-08-11T06:11:51;12.97;;;12.57;;
11002;SDS011;5554;55.796;13.090;2022-08-11T06:14:20;13.40;;;13.00;;
11002;SDS011;5554;55.796;13.090;2022-08-11T06:16:49;13.10;;;12.70;;
11002;SDS011;5554;55.796;13.090;2022-08-11T06:19:20;13.87;;;13.47;;
11002;SDS011;5554;55.796;13.090;2022-08-11T06:21:48;14.30;;;13.90;;
11002;SDS011;5554;55.796;13.090;2022-08-11T06:24:17;13.90;;;13.50;;
11002;SDS011;5554;55.796;13.090;2022-08-11T06:26:48;12.73;;;12.33;;
11002;SDS011;5554;55.796;13.090;2022-08-11T06:29:16;12.60;;;12.20;;
11002;SDS011;5554;55.796;13.090;2022-08-11T06:31:50;12.47;;;12.10;;
11002;SDS011;5554;55.796;13.090;2022-08-11T06:34:26;12.17;;;11.87;;
11002;SDS011;5554;55.796;13.090;2022-08-11T06:37:20;12.90;;;12.50;;
11002;SDS011;5554;55.796;13.090;2022-08-11T06:39:53;11.90;;;11.60;;
11002;SDS011;5554;55.796;13.090;2022-08-11T06:42:43;12.03;;;11.73;;
11002;SDS011;5554;55.796;13.090;2022-08-11T06:45:23;11.43;;;11.13;;
11002;SDS011;5554;55.796;13.090;2022-08-11T06:47:53;12.87;;;12.47;;
11002;SDS011;5554;55.796;13.090;2022-08-11T06:50:26;11.90;;;11.60;;
11002;SDS011;5554;55.796;13.090;2022-08-11T06:53:14;12.83;;;12.43;;
11002;SDS011;5554;55.796;13.090;2022-08-11T06:58:57;12.53;;;12.13;;
11002;SDS011;5554;55.796;13.090;2022-08-11T07:01:45;13.23;;;12.83;;
11002;SDS011;5554;55.796;13.090;2022-08-11T07:04:30;13.50;;;13.10;;
11002;SDS011;5554;55.796;13.090;2022-08-11T07:07:27;12.00;;;11.70;;
11002;SDS011;5554;55.796;13.090;2022-08-11T07:10:44;12.03;;;11.73;;
11002;SDS011;5554;55.796;13.090;2022-08-11T07:14:17;12.80;;;12.40;;
11002;SDS011;5554;55.796;13.090;2022-08-11T07:18:55;13.37;;;12.97;;
11002;SDS011;5554;55.796;13.090;2022-08-11T07:19:54;13.77;;;13.37;;
11002;SDS011;5554;55.796;13.090;2022-08-11T07:22:54;13.20;;;12.80;;
11002;SDS011;5554;55.796;13.090;2022-08-11T07:25:52;12.30;;;11.97;;
11002;SDS011;5554;55.796;13.090;2022-08-11T07:28:41;12.93;;;12.53;;
11002;SDS011;5554;55.796;13.090;2022-08-11T07:31:23;13.33;;;12.93;;
11002;SDS011;5554;55.796;13.090;2022-08-11T07:33:56;12.87;;;12.47;;
11002;SDS011;5554;55.796;13.090;2022-08-11T07:36:30;13.23;;;12.83;;
11002;SDS011;5554;55.796;13.090;2022-08-11T07:39:00;13.37;;;12.97;;
11002;SDS011;5554;55.796;13.090;2022-08-11T07:41:28;12.03;;;11.73;;
11002;SDS011;5554;55.796;13.090;2022-08-11T07:44:00;13.00;;;12.60;;
11002;SDS011;5554;55.796;13.090;2022-08-11T07:46:34;12.80;;;12.40;;
11002;SDS011;5554;55.796;13.090;2022-08-11T07:49:22;11.40;;;11.10;;
11002;SDS011;5554;55.796;13.090;2022-08-11T07:52:07;13.50;;;13.10;;
11002;SDS011;5554;55.796;13.090;2022-08-11T07:54:53;11.00;;;10.70;;
11002;SDS011;5554;55.796;13.090;2022-08-11T07:57:21;13.37;;;12.97;;
11002;SDS011;5554;55.796;13.090;2022-08-11T08:00:07;14.53;;;14.03;;
11002;SDS011;5554;55.796;13.090;2022-08-11T08:02:55;13.07;;;12.67;;
11002;SDS011;5554;55.796;13.090;2022-08-11T08:05:42;13.57;;;13.17;;
11002;SDS011;5554;55.796;13.090;2022-08-11T08:08:27;13.23;;;12.83;;
11002;SDS011;5554;55.796;13.090;2022-08-11T08:11:14;14.07;;;13.67;;
11002;SDS011;5554;55.796;13.090;2022-08-11T08:14:02;13.37;;;12.97;;
11002;SDS011;5554;55.796;13.090;2022-08-11T08:16:47;13.33;;;12.93;;
11002;SDS011;5554;55.796;13.090;2022-08-11T08:19:35;13.17;;;12.77;;
11002;SDS011;5554;55.796;13.090;2022-08-11T08:22:02;11.60;;;11.30;;
11002;SDS011;5554;55.796;13.090;2022-08-11T08:24:32;12.97;;;12.57;;
11002;SDS011;5554;55.796;13.090;2022-08-11T08:27:01;13.07;;;12.67;;
11002;SDS011;5554;55.796;13.090;2022-08-11T08:29:30;12.73;;;12.33;;
11002;SDS011;5554;55.796;13.090;2022-08-11T08:32:17;13.90;;;13.50;;
11002;SDS011;5554;55.796;13.090;2022-08-11T08:34:46;11.87;;;11.57;;
11002;SDS011;5554;55.796;13.090;2022-08-11T08:37:16;12.17;;;11.87;;
11002;SDS011;5554;55.796;13.090;2022-08-11T08:39:47;12.40;;;12.03;;
11002;SDS011;5554;55.796;13.090;2022-08-11T08:42:23;12.97;;;12.57;;
11002;SDS011;5554;55.796;13.090;2022-08-11T08:44:54;12.40;;;12.03;;
11002;SDS011;5554;55.796;13.090;2022-08-11T08:47:24;13.63;;;13.23;;
11002;SDS011;5554;55.796;13.090;2022-08-11T08:49:56;14.47;;;14.07;;
11002;SDS011;5554;55.796;13.090;2022-08-11T08:52:26;12.30;;;11.97;;
11002;SDS011;5554;55.796;13.090;2022-08-11T08:54:59;13.50;;;13.10;;
11002;SDS011;5554;55.796;13.090;2022-08-11T08:57:31;14.37;;;13.97;;
11002;SDS011;5554;55.796;13.090;2022-08-11T09:00:00;14.40;;;14.00;;
11002;SDS011;5554;55.796;13.090;2022-08-11T09:02:28;14.75;;;14.35;;
11002;SDS011;5554;55.796;13.090;2022-08-11T09:04:56;15.10;;;14.70;;
11002;SDS011;5554;55.796;13.090;2022-08-11T09:07:27;14.80;;;14.40;;
11002;SDS011;5554;55.796;13.090;2022-08-11T09:09:55;15.00;;;14.60;;
11002;SDS011;5554;55.796;13.090;2022-08-11T09:12:27;15.15;;;14.75;;
11002;SDS011;5554;55.796;13.090;2022-08-11T09:14:57;15.88;;;15.38;;
11002;SDS011;5554;55.796;13.090;2022-08-11T09:17:36;15.48;;;15.07;;
11002;SDS011;5554;55.796;13.090;2022-08-11T09:20:08;16.25;;;15.75;;
11002;SDS011;5554;55.796;13.090;2022-08-11T09:22:41;16.13;;;15.63;;
11002;SDS011;5554;55.796;13.090;2022-08-11T09:25:27;16.10;;;15.60;;
11002;SDS011;5554;55.796;13.090;2022-08-11T09:28:16;16.10;;;15.60;;
11002;SDS011;5554;55.796;13.090;2022-08-11T09:30:47;16.92;;;16.42;;
11002;SDS011;5554;55.796;13.090;2022-08-11T09:33:18;16.10;;;15.60;;
11002;SDS011;5554;55.796;13.090;2022-08-11T09:35:46;16.77;;;16.27;;
11002;SDS011;5554;55.796;13.090;2022-08-11T09:38:21;16.25;;;15.75;;
11002;SDS011;5554;55.796;13.090;2022-08-11T09:41:09;15.70;;;15.25;;
11002;SDS011;5554;55.796;13.090;2022-08-11T09:43:39;16.35;;;15.85;;
11002;SDS011;5554;55.796;13.090;2022-08-11T09:46:29;16.05;;;15.55;;
11002;SDS011;5554;55.796;13.090;2022-08-11T09:48:57;22.70;;;21.45;;
11002;SDS011;5554;55.796;13.090;2022-08-11T09:51:27;15.75;;;15.25;;
11002;SDS011;5554;55.796;13.090;2022-08-11T09:53:57;15.57;;;15.13;;
11002;SDS011;5554;55.796;13.090;2022-08-11T09:56:26;16.75;;;16.25;;
11002;SDS011;5554;55.796;13.090;2022-08-11T09:59:12;15.27;;;14.88;;
11002;SDS011;5554;55.796;13.090;2022-08-11T10:01:42;15.95;;;15.45;;
11002;SDS011;5554;55.796;13.090;2022-08-11T10:04:13;18.85;;;18.33;;
11002;SDS011;5554;55.796;13.090;2022-08-11T10:06:42;17.05;;;16.55;;
11002;SDS011;5554;55.796;13.090;2022-08-11T10:09:26;16.42;;;15.93;;
11002;SDS011;5554;55.796;13.090;2022-08-11T10:11:55;18.75;;;18.25;;
11002;SDS011;5554;55.796;13.090;2022-08-11T10:14:27;15.73;;;15.25;;
11002;SDS011;5554;55.796;13.090;2022-08-11T10:17:18;17.00;;;16.50;;
11002;SDS011;5554;55.796;13.090;2022-08-11T10:19:47;16.65;;;16.15;;
11002;SDS011;5554;55.796;13.090;2022-08-11T10:22:16;16.70;;;16.20;;
11002;SDS011;5554;55.796;13.090;2022-08-11T10:25:02;17.13;;;16.63;;
11002;SDS011;5554;55.796;13.090;2022-08-11T10:27:47;15.13;;;14.63;;
11002;SDS011;5554;55.796;13.090;2022-08-11T10:30:22;15.93;;;15.43;;
11002;SDS011;5554;55.796;13.090;2022-08-11T10:33:09;15.38;;;14.98;;
11002;SDS011;5554;55.796;13.090;2022-08-11T10:35:55;17.58;;;16.80;;
11002;SDS011;5554;55.796;13.090;2022-08-11T10:38:24;16.30;;;15.80;;
11002;SDS011;5554;55.796;13.090;2022-08-11T10:40:57;15.65;;;15.20;;
11002;SDS011;5554;55.796;13.090;2022-08-11T10:43:42;16.13;;;15.63;;
11002;SDS011;5554;55.796;13.090;2022-08-11T10:46:10;16.23;;;15.45;;
11002;SDS011;5554;55.796;13.090;2022-08-11T10:48:56;16.08;;;15.57;;
11002;SDS011;5554;55.796;13.090;2022-08-11T10:51:24;16.60;;;16.10;;
11002;SDS011;5554;55.796;13.090;2022-08-11T10:54:09;15.82;;;15.32;;
11002;SDS011;5554;55.796;13.090;2022-08-11T10:56:55;17.52;;;17.02;;
11002;SDS011;5554;55.796;13.090;2022-08-11T10:59:39;16.10;;;15.60;;
11002;SDS011;5554;55.796;13.090;2022-08-11T11:02:08;16.00;;;15.50;;
11002;SDS011;5554;55.796;13.090;2022-08-11T11:04:46;17.05;;;16.55;;
11002;SDS011;5554;55.796;13.090;2022-08-11T11:07:38;16.75;;;16.25;;
11002;SDS011;5554;55.796;13.090;2022-08-11T11:10:12;16.23;;;15.73;;
11002;SDS011;5554;55.796;13.090;2022-08-11T11:12:43;14.25;;;13.85;;
11002;SDS011;5554;55.796;13.090;2022-08-11T11:15:33;15.95;;;15.45;;
11002;SDS011;5554;55.796;13.090;2022-08-11T11:18:26;15.77;;;15.30;;
11002;SDS011;5554;55.796;13.090;2022-08-11T11:21:02;15.85;;;15.35;;
11002;SDS011;5554;55.796;13.090;2022-08-11T11:23:33;15.00;;;14.60;;
11002;SDS011;5554;55.796;13.090;2022-08-11T11:29:09;29.98;;;29.08;;
11002;SDS011;5554;55.796;13.090;2022-08-11T11:31:58;18.10;;;17.60;;
11002;SDS011;5554;55.796;13.090;2022-08-11T11:35:00;18.08;;;17.58;;
11002;SDS011;5554;55.796;13.090;2022-08-11T11:37:56;16.60;;;16.10;;
11002;SDS011;5554;55.796;13.090;2022-08-11T11:40:25;15.80;;;15.30;;
11002;SDS011;5554;55.796;13.090;2022-08-11T11:42:55;16.83;;;16.33;;
11002;SDS011;5554;55.796;13.090;2022-08-11T11:45:25;16.77;;;16.27;;
11002;SDS011;5554;55.796;13.090;2022-08-11T11:47:55;16.23;;;15.73;;
11002;SDS011;5554;55.796;13.090;2022-08-11T11:50:24;16.05;;;15.55;;
11002;SDS011;5554;55.796;13.090;2022-08-11T11:52:54;16.58;;;16.08;;
11002;SDS011;5554;55.796;13.090;2022-08-11T11:55:26;15.70;;;15.20;;
11002;SDS011;5554;55.796;13.090;2022-08-11T11:57:54;15.38;;;14.98;;
11002;SDS011;5554;55.796;13.090;2022-08-11T12:00:42;15.95;;;15.45;;
11002;SDS011;5554;55.796;13.090;2022-08-11T12:03:27;15.68;;;15.18;;
11002;SDS011;5554;55.796;13.090;2022-08-11T12:05:55;16.17;;;15.68;;
11002;SDS011;5554;55.796;13.090;2022-08-11T12:08:37;17.05;;;16.55;;
11002;SDS011;5554;55.796;13.090;2022-08-11T12:11:04;17.38;;;16.88;;
11002;SDS011;5554;55.796;13.090;2022-08-11T12:13:51;17.52;;;17.02;;
11002;SDS011;5554;55.796;13.090;2022-08-11T12:16:20;18.35;;;17.77;;
11002;SDS011;5554;55.796;13.090;2022-08-11T12:18:51;17.23;;;16.73;;
11002;SDS011;5554;55.796;13.090;2022-08-11T12:21:23;15.70;;;15.25;;
11002;SDS011;5554;55.796;13.090;2022-08-11T12:23:53;16.67;;;16.17;;
11002;SDS011;5554;55.796;13.090;2022-08-11T12:26:39;17.48;;;16.98;;
11002;SDS011;5554;55.796;13.090;2022-08-11T12:29:25;14.20;;;13.80;;
11002;SDS011;5554;55.796;13.090;2022-08-11T12:31:55;16.58;;;16.08;;
11002;SDS011;5554;55.796;13.090;2022-08-11T12:34:25;17.80;;;17.30;;
11002;SDS011;5554;55.796;13.090;2022-08-11T12:36:55;17.80;;;17.30;;
11002;SDS011;5554;55.796;13.090;2022-08-11T12:39:37;17.88;;;17.38;;
11002;SDS011;5554;55.796;13.090;2022-08-11T12:42:25;19.40;;;18.80;;
11002;SDS011;5554;55.796;13.090;2022-08-11T12:45:11;17.00;;;16.50;;
11002;SDS011;5554;55.796;13.090;2022-08-11T12:47:58;17.80;;;17.30;;
11002;SDS011;5554;55.796;13.090;2022-08-11T12:50:49;17.50;;;17.00;;
11002;SDS011;5554;55.796;13.090;2022-08-11T12:53:38;18.67;;;18.08;;
11002;SDS011;5554;55.796;13.090;2022-08-11T12:56:11;16.20;;;15.70;;
11002;SDS011;5554;55.796;13.090;2022-08-11T12:58:56;16.27;;;15.77;;
11002;SDS011;5554;55.796;13.090;2022-08-11T13:01:42;16.15;;;15.65;;
11002;SDS011;5554;55.796;13.090;2022-08-11T13:04:27;16.48;;;15.98;;
11002;SDS011;5554;55.796;13.090;2022-08-11T13:07:13;16.13;;;15.63;;
11002;SDS011;5554;55.796;13.090;2022-08-11T13:09:41;16.65;;;16.15;;
11002;SDS011;5554;55.796;13.090;2022-08-11T13:12:13;15.70;;;15.23;;
11002;SDS011;5554;55.796;13.090;2022-08-11T13:14:59;16.92;;;16.42;;
11002;SDS011;5554;55.796;13.090;2022-08-11T13:17:27;15.35;;;14.95;;
11002;SDS011;5554;55.796;13.090;2022-08-11T13:20:01;14.52;;;14.13;;
11002;SDS011;5554;55.796;13.090;2022-08-11T13:22:29;15.68;;;15.23;;
11002;SDS011;5554;55.796;13.090;2022-08-11T13:24:56;16.33;;;15.82;;
11002;SDS011;5554;55.796;13.090;2022-08-11T13:27:25;17.13;;;16.63;;
11002;SDS011;5554;55.796;13.090;2022-08-11T13:29:56;15.48;;;15.05;;
11002;SDS011;5554;55.796;13.090;2022-08-11T13:32:40;16.35;;;15.85;;
11002;SDS011;5554;55.796;13.090;2022-08-11T13:35:11;18.65;;;18.15;;
11002;SDS011;5554;55.796;13.090;2022-08-11T13:37:39;19.52;;;18.92;;
11002;SDS011;5554;55.796;13.090;2022-08-11T13:40:15;18.77;;;18.27;;
11002;SDS011;5554;55.796;13.090;2022-08-11T13:42:46;18.58;;;18.08;;
11002;SDS011;5554;55.796;13.090;2022-08-11T13:45:15;18.27;;;17.77;;
11002;SDS011;5554;55.796;13.090;2022-08-11T13:47:43;16.37;;;15.87;;
11002;SDS011;5554;55.796;13.090;2022-08-11T13:50:14;15.35;;;14.93;;
11002;SDS011;5554;55.796;13.090;2022-08-11T13:52:52;16.45;;;15.95;;
11002;SDS011;5554;55.796;13.090;2022-08-11T13:55:26;16.65;;;16.15;;
11002;SDS011;5554;55.796;13.090;2022-08-11T13:57:55;18.27;;;17.77;;
11002;SDS011;5554;55.796;13.090;2022-08-11T14:00:22;16.98;;;16.48;;
11002;SDS011;5554;55.796;13.090;2022-08-11T14:02:49;18.52;;;18.02;;
11002;SDS011;5554;55.796;13.090;2022-08-11T14:05:21;17.98;;;17.48;;
11002;SDS011;5554;55.796;13.090;2022-08-11T14:07:58;18.00;;;17.50;;
11002;SDS011;5554;55.796;13.090;2022-08-11T14:10:27;17.02;;;16.52;;
11002;SDS011;5554;55.796;13.090;2022-08-11T14:13:02;17.02;;;16.52;;
11002;SDS011;5554;55.796;13.090;2022-08-11T14:15:50;16.10;;;15.60;;
11002;SDS011;5554;55.796;13.090;2022-08-11T14:18:26;16.00;;;15.50;;
11002;SDS011;5554;55.796;13.090;2022-08-11T14:20:55;15.38;;;14.98;;
11002;SDS011;5554;55.796;13.090;2022-08-11T14:23:42;15.65;;;15.20;;
11002;SDS011;5554;55.796;13.090;2022-08-11T14:26:15;15.95;;;15.45;;
11002;SDS011;5554;55.796;13.090;2022-08-11T14:28:52;15.68;;;15.23;;
11002;SDS011;5554;55.796;13.090;2022-08-11T14:31:23;15.65;;;15.20;;
11002;SDS011;5554;55.796;13.090;2022-08-11T14:34:00;15.60;;;15.15;;
11002;SDS011;5554;55.796;13.090;2022-08-11T14:36:31;15.10;;;14.70;;
11002;SDS011;5554;55.796;13.090;2022-08-11T14:39:01;14.90;;;14.50;;
11002;SDS011;5554;55.796;13.090;2022-08-11T14:41:32;16.13;;;15.63;;
11002;SDS011;5554;55.796;13.090;2022-08-11T14:44:18;15.57;;;15.15;;
11002;SDS011;5554;55.796;13.090;2022-08-11T14:47:03;14.80;;;14.40;;
11002;SDS011;5554;55.796;13.090;2022-08-11T14:49:32;14.43;;;13.93;;
11002;SDS011;5554;55.796;13.090;2022-08-11T14:52:05;14.97;;;14.57;;
11002;SDS011;5554;55.796;13.090;2022-08-11T14:54:34;15.10;;;14.70;;
11002;SDS011;5554;55.796;13.090;2022-08-11T14:57:20;14.00;;;13.60;;
11002;SDS011;5554;55.796;13.090;2022-08-11T14:59:53;15.57;;;15.13;;
11002;SDS011;5554;55.796;13.090;2022-08-11T15:02:26;14.87;;;14.47;;
11002;SDS011;5554;55.796;13.090;2022-08-11T15:05:14;15.77;;;15.27;;
11002;SDS011;5554;55.796;13.090;2022-08-11T15:07:42;16.10;;;15.60;;
11002;SDS011;5554;55.796;13.090;2022-08-11T15:10:15;16.40;;;15.90;;
11002;SDS011;5554;55.796;13.090;2022-08-11T15:12:43;15.37;;;14.97;;
11002;SDS011;5554;55.796;13.090;2022-08-11T15:15:25;14.70;;;14.30;;
11002;SDS011;5554;55.796;13.090;2022-08-11T15:18:15;15.20;;;14.70;;
11002;SDS011;5554;55.796;13.090;2022-08-11T15:20:44;16.03;;;15.53;;
11002;SDS011;5554;55.796;13.090;2022-08-11T15:23:32;14.80;;;14.40;;
11002;SDS011;5554;55.796;13.090;2022-08-11T15:26:17;16.33;;;15.83;;
11002;SDS011;5554;55.796;13.090;2022-08-11T15:29:10;15.80;;;15.30;;
11002;SDS011;5554;55.796;13.090;2022-08-11T15:31:59;15.73;;;15.27;;
11002;SDS011;5554;55.796;13.090;2022-08-11T15:34:44;17.43;;;16.93;;
11002;SDS011;5554;55.796;13.090;2022-08-11T15:37:31;16.33;;;15.83;;
11002;SDS011;5554;55.796;13.090;2022-08-11T15:40:09;16.07;;;15.57;;
11002;SDS011;5554;55.796;13.090;2022-08-11T15:43:00;16.07;;;15.57;;
11002;SDS011;5554;55.796;13.090;2022-08-11T15:46:00;15.13;;;14.73;;
11002;SDS011;5554;55.796;13.090;2022-08-11T15:48:46;13.53;;;13.13;;
11002;SDS011;5554;55.796;13.090;2022-08-11T15:51:17;14.90;;;14.50;;
11002;SDS011;5554;55.796;13.090;2022-08-11T15:54:02;13.77;;;13.37;;
11002;SDS011;5554;55.796;13.090;2022-08-11T15:56:40;15.20;;;14.80;;
11002;SDS011;5554;55.796;13.090;2022-08-11T15:59:14;14.17;;;13.77;;
11002;SDS011;5554;55.796;13.090;2022-08-11T16:02:03;15.27;;;14.87;;
11002;SDS011;5554;55.796;13.090;2022-08-11T16:04:53;15.20;;;14.80;;
11002;SDS011;5554;55.796;13.090;2022-08-11T16:07:33;15.37;;;14.97;;
11002;SDS011;5554;55.796;13.090;2022-08-11T16:10:03;15.07;;;14.67;;
11002;SDS011;5554;55.796;13.090;2022-08-11T16:12:36;15.20;;;14.80;;
11002;SDS011;5554;55.796;13.090;2022-08-11T16:15:06;16.17;;;15.67;;
11002;SDS011;5554;55.796;13.090;2022-08-11T16:17:54;15.07;;;14.67;;
11002;SDS011;5554;55.796;13.090;2022-08-11T16:25:22;16.23;;;15.73;;
11002;SDS011;5554;55.796;13.090;2022-08-11T16:27:50;16.17;;;15.67;;
11002;SDS011;5554;55.796;13.090;2022-08-11T16:30:20;15.10;;;14.70;;
11002;SDS011;5554;55.796;13.090;2022-08-11T16:32:49;15.93;;;15.43;;
11002;SDS011;5554;55.796;13.090;2022-08-11T16:35:18;16.70;;;16.20;;
11002;SDS011;5554;55.796;13.090;2022-08-11T16:38:19;16.50;;;16.00;;
11002;SDS011;5554;55.796;13.090;2022-08-11T16:41:01;16.93;;;16.43;;
11002;SDS011;5554;55.796;13.090;2022-08-11T16:43:33;16.37;;;15.87;;
11002;SDS011;5554;55.796;13.090;2022-08-11T16:46:37;16.10;;;15.60;;
11002;SDS011;5554;55.796;13.090;2022-08-11T16:49:27;16.73;;;16.23;;
11002;SDS011;5554;55.796;13.090;2022-08-11T16:52:14;15.20;;;14.80;;
11002;SDS011;5554;55.796;13.090;2022-08-11T16:54:43;16.07;;;15.57;;
11002;SDS011;5554;55.796;13.090;2022-08-11T16:57:19;15.90;;;15.40;;
11002;SDS011;5554;55.796;13.090;2022-08-11T17:00:07;14.73;;;14.33;;
11002;SDS011;5554;55.796;13.090;2022-08-11T17:02:38;14.93;;;14.53;;
11002;SDS011;5554;55.796;13.090;2022-08-11T17:05:25;15.70;;;15.20;;